Main page
METAR-TAF:

METAR-TAF

Airports :

Larnaca, Cyprus

Larnaca International Airport

latitude: 34-53N, longitude: 033-38E, elevation: 2 m

Current weather observation

The report was made 49 minutes ago, at 06:30 UTC
Wind 4 kt from the East/Southeast
Temperature 28°C
Humidity 58%
Pressure 1013 hPa
Visibility 10 km or more
Few clouds at a height of 2000 ft

METAR: LCLK 260630Z 11004KT 9999 FEW020 28/19 Q1013 NOSIG

Time: 10:19 (07:19 UTC)

Forecast

The report was made 7 hours and 49 minutes ago, at 23:30 UTC
Forecast valid from 26 at 00 UTC to 26 at 24 UTC
Wind 7 kt from the Northwest
Visibility 10 km or more
Few clouds at a height of 3000 ft
Becoming
from 26 at 08 UTC to 26 at 12 UTC
Wind 18 kt from the South/Southwest
Becoming
from 26 at 15 UTC to 26 at 19 UTC
Wind 8 kt from the Northwest

TAF: LCLK 252330Z 2600/2624 31007KT 9999 FEW030 BECMG 2608/2612 21018KT BECMG 2615/2619 32008KT

Weather observations and forecasts of more than 4000 airports (METAR and TAF reports).

The available stations are represented by yellow and red dots on the map.

Hover mouse over dot to see the name of the station.

Then click to see weather observations and forecasts.

To change the map : click on the green buttons with a black cross to zoom in, on the green button with a dash to zoom out, or on the green arrows for adjacent maps.


METAR-TAF: